sensor_id;sensor_type;location;lat;lon;timestamp;pressure;altitude;pressure_sealevel;temperature;humidity
59877;BME280;74472;51.140;17.184;2024-02-04T00:00:07;100081.78;;;8.85;99.77
59877;BME280;74472;51.140;17.184;2024-02-04T00:02:32;100076.81;;;8.81;99.70
59877;BME280;74472;51.140;17.184;2024-02-04T00:04:57;100063.78;;;8.79;99.70
59877;BME280;74472;51.140;17.184;2024-02-04T00:07:22;100058.53;;;8.79;99.85
59877;BME280;74472;51.140;17.184;2024-02-04T00:09:48;100049.88;;;8.77;99.54
59877;BME280;74472;51.140;17.184;2024-02-04T00:12:14;100052.72;;;8.74;99.30
59877;BME280;74472;51.140;17.184;2024-02-04T00:14:39;100055.56;;;8.71;99.55
59877;BME280;74472;51.140;17.184;2024-02-04T00:17:04;100067.78;;;8.72;99.16
59877;BME280;74472;51.140;17.184;2024-02-04T00:19:30;100067.88;;;8.71;99.04
59877;BME280;74472;51.140;17.184;2024-02-04T00:21:55;100057.78;;;8.64;98.68
59877;BME280;74472;51.140;17.184;2024-02-04T00:24:20;100065.66;;;8.64;98.79
59877;BME280;74472;51.140;17.184;2024-02-04T00:26:46;100058.09;;;8.60;98.59
59877;BME280;74472;51.140;17.184;2024-02-04T00:29:11;100059.06;;;8.59;98.63
59877;BME280;74472;51.140;17.184;2024-02-04T00:31:36;100060.94;;;8.57;98.69
59877;BME280;74472;51.140;17.184;2024-02-04T00:34:02;100064.63;;;8.54;98.27
59877;BME280;74472;51.140;17.184;2024-02-04T00:36:28;100059.56;;;8.51;98.45
59877;BME280;74472;51.140;17.184;2024-02-04T00:38:53;100055.34;;;8.49;98.40
59877;BME280;74472;51.140;17.184;2024-02-04T00:41:18;100060.81;;;8.45;98.52
59877;BME280;74472;51.140;17.184;2024-02-04T00:43:44;100062.72;;;8.43;98.52
59877;BME280;74472;51.140;17.184;2024-02-04T00:46:09;100056.63;;;8.43;98.41
59877;BME280;74472;51.140;17.184;2024-02-04T00:48:36;100072.41;;;8.43;98.48
59877;BME280;74472;51.140;17.184;2024-02-04T00:51:02;100072.50;;;8.41;98.57
59877;BME280;74472;51.140;17.184;2024-02-04T00:53:27;100057.69;;;8.40;98.64
59877;BME280;74472;51.140;17.184;2024-02-04T00:55:58;100064.59;;;8.41;98.63
59877;BME280;74472;51.140;17.184;2024-02-04T00:58:24;100064.72;;;8.40;98.41
59877;BME280;74472;51.140;17.184;2024-02-04T01:00:49;100059.63;;;8.37;98.51
59877;BME280;74472;51.140;17.184;2024-02-04T01:03:14;100056.19;;;8.36;98.40
59877;BME280;74472;51.140;17.184;2024-02-04T01:05:40;100057.84;;;8.37;98.36
59877;BME280;74472;51.140;17.184;2024-02-04T01:08:05;100070.25;;;8.35;98.10
59877;BME280;74472;51.140;17.184;2024-02-04T01:10:30;100061.63;;;8.33;98.08
59877;BME280;74472;51.140;17.184;2024-02-04T01:12:56;100070.56;;;8.31;98.20
59877;BME280;74472;51.140;17.184;2024-02-04T01:15:21;100065.31;;;8.31;98.03
59877;BME280;74472;51.140;17.184;2024-02-04T01:17:46;100062.78;;;8.29;97.73
59877;BME280;74472;51.140;17.184;2024-02-04T01:20:12;100063.72;;;8.28;97.71
59877;BME280;74472;51.140;17.184;2024-02-04T01:22:37;100056.25;;;8.22;97.48
59877;BME280;74472;51.140;17.184;2024-02-04T01:25:02;100057.41;;;8.18;97.49
59877;BME280;74472;51.140;17.184;2024-02-04T01:27:28;100071.69;;;8.14;97.44
59877;BME280;74472;51.140;17.184;2024-02-04T01:29:53;100060.56;;;8.10;97.64
59877;BME280;74472;51.140;17.184;2024-02-04T01:32:18;100053.59;;;8.09;97.66
59877;BME280;74472;51.140;17.184;2024-02-04T01:34:43;100053.69;;;8.08;97.73
59877;BME280;74472;51.140;17.184;2024-02-04T01:37:09;100048.44;;;8.08;97.48
59877;BME280;74472;51.140;17.184;2024-02-04T01:39:34;100053.91;;;8.05;97.45
59877;BME280;74472;51.140;17.184;2024-02-04T01:41:59;100059.28;;;8.03;97.27
59877;BME280;74472;51.140;17.184;2024-02-04T01:44:26;100058.53;;;8.01;97.51
59877;BME280;74472;51.140;17.184;2024-02-04T01:46:51;100050.63;;;8.01;97.55
59877;BME280;74472;51.140;17.184;2024-02-04T01:49:16;100054.22;;;8.00;97.49
59877;BME280;74472;51.140;17.184;2024-02-04T01:51:42;100053.59;;;7.96;97.63
59877;BME280;74472;51.140;17.184;2024-02-04T01:54:08;100052.06;;;7.92;97.49
59877;BME280;74472;51.140;17.184;2024-02-04T01:56:33;100058.84;;;7.96;97.78
59877;BME280;74472;51.140;17.184;2024-02-04T01:58:59;100039.50;;;7.97;97.92
59877;BME280;74472;51.140;17.184;2024-02-04T02:01:26;100034.03;;;8.01;97.74
59877;BME280;74472;51.140;17.184;2024-02-04T02:03:51;100025.13;;;8.03;98.04
59877;BME280;74472;51.140;17.184;2024-02-04T02:06:17;100039.81;;;8.06;98.12
59877;BME280;74472;51.140;17.184;2024-02-04T02:08:42;100039.72;;;8.07;98.09
59877;BME280;74472;51.140;17.184;2024-02-04T02:11:27;100035.09;;;8.11;98.17
59877;BME280;74472;51.140;17.184;2024-02-04T02:14:00;100047.28;;;8.12;98.22
59877;BME280;74472;51.140;17.184;2024-02-04T02:16:30;100059.50;;;8.13;97.95
59877;BME280;74472;51.140;17.184;2024-02-04T02:19:06;100063.91;;;8.12;98.01
59877;BME280;74472;51.140;17.184;2024-02-04T02:21:46;100074.31;;;8.14;98.16
59877;BME280;74472;51.140;17.184;2024-02-04T02:26:50;100060.22;;;8.15;98.36
59877;BME280;74472;51.140;17.184;2024-02-04T02:29:16;100042.78;;;8.14;98.49
59877;BME280;74472;51.140;17.184;2024-02-04T02:31:42;100031.44;;;8.13;98.54
59877;BME280;74472;51.140;17.184;2024-02-04T02:34:09;100018.19;;;8.15;98.53
59877;BME280;74472;51.140;17.184;2024-02-04T02:36:43;100026.50;;;8.21;98.71
59877;BME280;74472;51.140;17.184;2024-02-04T02:39:15;100014.94;;;8.24;98.67
59877;BME280;74472;51.140;17.184;2024-02-04T02:41:44;100010.44;;;8.26;98.53
59877;BME280;74472;51.140;17.184;2024-02-04T02:44:14;100013.06;;;8.26;98.84
59877;BME280;74472;51.140;17.184;2024-02-04T02:46:41;100029.53;;;8.28;98.90
59877;BME280;74472;51.140;17.184;2024-02-04T02:49:06;100030.50;;;8.27;99.04
59877;BME280;74472;51.140;17.184;2024-02-04T02:51:32;100028.81;;;8.26;99.04
59877;BME280;74472;51.140;17.184;2024-02-04T02:53:57;100038.59;;;8.24;99.28
59877;BME280;74472;51.140;17.184;2024-02-04T02:56:22;100027.88;;;8.27;99.27
59877;BME280;74472;51.140;17.184;2024-02-04T02:58:48;100040.91;;;8.29;99.22
59877;BME280;74472;51.140;17.184;2024-02-04T03:01:13;100023.38;;;8.29;99.18
59877;BME280;74472;51.140;17.184;2024-02-04T03:03:38;100019.78;;;8.30;99.06
59877;BME280;74472;51.140;17.184;2024-02-04T03:06:04;100012.84;;;8.29;99.00
59877;BME280;74472;51.140;17.184;2024-02-04T03:08:30;100006.72;;;8.29;98.63
59877;BME280;74472;51.140;17.184;2024-02-04T03:10:55;100014.72;;;8.27;98.27
59877;BME280;74472;51.140;17.184;2024-02-04T03:13:21;100018.50;;;8.23;98.24
59877;BME280;74472;51.140;17.184;2024-02-04T03:15:46;100016.09;;;8.20;97.96
59877;BME280;74472;51.140;17.184;2024-02-04T03:18:11;100018.19;;;8.15;97.77
59877;BME280;74472;51.140;17.184;2024-02-04T03:20:37;100020.81;;;8.15;97.77
59877;BME280;74472;51.140;17.184;2024-02-04T03:23:02;100010.50;;;8.12;97.20
59877;BME280;74472;51.140;17.184;2024-02-04T03:25:28;100018.50;;;8.10;97.27
59877;BME280;74472;51.140;17.184;2024-02-04T03:27:54;100022.28;;;8.06;96.90
59877;BME280;74472;51.140;17.184;2024-02-04T03:30:19;100018.06;;;8.04;96.86
59877;BME280;74472;51.140;17.184;2024-02-04T03:32:45;100019.09;;;8.01;96.75
59877;BME280;74472;51.140;17.184;2024-02-04T03:35:10;100020.06;;;8.00;96.50
59877;BME280;74472;51.140;17.184;2024-02-04T03:37:35;100023.94;;;7.94;96.18
59877;BME280;74472;51.140;17.184;2024-02-04T03:40:00;100032.97;;;7.90;96.13
59877;BME280;74472;51.140;17.184;2024-02-04T03:42:26;100038.50;;;7.86;95.83
59877;BME280;74472;51.140;17.184;2024-02-04T03:44:51;100038.63;;;7.84;95.98
59877;BME280;74472;51.140;17.184;2024-02-04T03:47:16;100033.56;;;7.81;95.85
59877;BME280;74472;51.140;17.184;2024-02-04T03:49:41;100047.84;;;7.77;95.68
59877;BME280;74472;51.140;17.184;2024-02-04T03:52:07;100048.78;;;7.76;95.71
59877;BME280;74472;51.140;17.184;2024-02-04T03:54:32;100046.16;;;7.76;95.26
59877;BME280;74472;51.140;17.184;2024-02-04T03:56:57;100055.81;;;7.75;95.37
59877;BME280;74472;51.140;17.184;2024-02-04T03:59:22;100063.88;;;7.72;95.24
59877;BME280;74472;51.140;17.184;2024-02-04T04:01:48;100059.66;;;7.70;95.08
59877;BME280;74472;51.140;17.184;2024-02-04T04:04:14;100079.19;;;7.66;94.87
59877;BME280;74472;51.140;17.184;2024-02-04T04:06:40;100072.59;;;7.60;94.85
59877;BME280;74472;51.140;17.184;2024-02-04T04:09:06;100087.47;;;7.60;94.72
59877;BME280;74472;51.140;17.184;2024-02-04T04:11:32;100085.78;;;7.59;94.59
59877;BME280;74472;51.140;17.184;2024-02-04T04:13:57;100086.00;;;7.56;94.24
59877;BME280;74472;51.140;17.184;2024-02-04T04:16:22;100081.13;;;7.49;94.21
59877;BME280;74472;51.140;17.184;2024-02-04T04:18:48;100085.91;;;7.43;93.79
59877;BME280;74472;51.140;17.184;2024-02-04T04:21:13;100088.66;;;7.41;93.15
59877;BME280;74472;51.140;17.184;2024-02-04T04:23:39;100100.19;;;7.39;93.46
59877;BME280;74472;51.140;17.184;2024-02-04T04:26:04;100098.59;;;7.36;93.25
59877;BME280;74472;51.140;17.184;2024-02-04T04:28:30;100092.69;;;7.33;92.78
59877;BME280;74472;51.140;17.184;2024-02-04T04:30:55;100092.03;;;7.29;92.57
59877;BME280;74472;51.140;17.184;2024-02-04T04:33:21;100089.63;;;7.26;92.05
59877;BME280;74472;51.140;17.184;2024-02-04T04:35:47;100088.78;;;7.25;92.69
59877;BME280;74472;51.140;17.184;2024-02-04T04:38:12;100086.91;;;7.27;92.68
59877;BME280;74472;51.140;17.184;2024-02-04T04:40:37;100090.38;;;7.28;92.52
59877;BME280;74472;51.140;17.184;2024-02-04T04:43:03;100090.44;;;7.26;92.17
59877;BME280;74472;51.140;17.184;2024-02-04T04:45:28;100091.28;;;7.27;92.00
59877;BME280;74472;51.140;17.184;2024-02-04T04:47:53;100097.50;;;7.26;92.10
59877;BME280;74472;51.140;17.184;2024-02-04T04:50:19;100097.59;;;7.24;91.87
59877;BME280;74472;51.140;17.184;2024-02-04T04:52:44;100094.97;;;7.24;92.15
59877;BME280;74472;51.140;17.184;2024-02-04T04:55:10;100085.38;;;7.23;92.01
59877;BME280;74472;51.140;17.184;2024-02-04T04:57:35;100075.84;;;7.22;91.78
59877;BME280;74472;51.140;17.184;2024-02-04T05:00:00;100075.09;;;7.20;91.73
59877;BME280;74472;51.140;17.184;2024-02-04T05:02:31;100086.63;;;7.18;91.95
59877;BME280;74472;51.140;17.184;2024-02-04T05:04:56;100083.25;;;7.16;91.74
59877;BME280;74472;51.140;17.184;2024-02-04T05:07:22;100076.31;;;7.15;91.73
59877;BME280;74472;51.140;17.184;2024-02-04T05:09:47;100076.53;;;7.12;91.71
59877;BME280;74472;51.140;17.184;2024-02-04T05:12:12;100075.03;;;7.08;92.01
59877;BME280;74472;51.140;17.184;2024-02-04T05:14:37;100069.97;;;7.04;91.91
59877;BME280;74472;51.140;17.184;2024-02-04T05:17:04;100075.59;;;6.98;91.90
59877;BME280;74472;51.140;17.184;2024-02-04T05:19:30;100077.28;;;6.99;92.20
59877;BME280;74472;51.140;17.184;2024-02-04T05:21:55;100081.75;;;6.97;92.14
59877;BME280;74472;51.140;17.184;2024-02-04T05:24:21;100078.28;;;6.97;91.95
59877;BME280;74472;51.140;17.184;2024-02-04T05:26:46;100080.25;;;6.93;92.01
59877;BME280;74472;51.140;17.184;2024-02-04T05:29:11;100083.06;;;6.90;91.70
59877;BME280;74472;51.140;17.184;2024-02-04T05:31:42;100084.84;;;6.90;91.77
59877;BME280;74472;51.140;17.184;2024-02-04T05:34:08;100090.41;;;6.85;91.70
59877;BME280;74472;51.140;17.184;2024-02-04T05:36:33;100080.94;;;6.82;91.57
59877;BME280;74472;51.140;17.184;2024-02-04T05:39:09;100095.00;;;6.81;91.79
59877;BME280;74472;51.140;17.184;2024-02-04T05:41:35;100095.16;;;6.78;91.71
59877;BME280;74472;51.140;17.184;2024-02-04T05:44:01;100094.34;;;6.78;91.69
59877;BME280;74472;51.140;17.184;2024-02-04T05:46:26;100103.03;;;6.78;91.65
59877;BME280;74472;51.140;17.184;2024-02-04T05:48:52;100093.47;;;6.77;91.61
59877;BME280;74472;51.140;17.184;2024-02-04T05:51:18;100094.34;;;6.78;91.56
59877;BME280;74472;51.140;17.184;2024-02-04T05:53:43;100090.19;;;6.74;91.65
59877;BME280;74472;51.140;17.184;2024-02-04T05:56:08;100091.13;;;6.73;91.74
59877;BME280;74472;51.140;17.184;2024-02-04T05:58:33;100093.75;;;6.73;91.43
59877;BME280;74472;51.140;17.184;2024-02-04T06:00:59;100091.13;;;6.73;91.49
59877;BME280;74472;51.140;17.184;2024-02-04T06:03:24;100091.25;;;6.71;91.39
59877;BME280;74472;51.140;17.184;2024-02-04T06:05:49;100087.66;;;6.72;91.55
59877;BME280;74472;51.140;17.184;2024-02-04T06:08:15;100090.47;;;6.69;91.32
59877;BME280;74472;51.140;17.184;2024-02-04T06:10:40;100097.50;;;6.69;91.43
59877;BME280;74472;51.140;17.184;2024-02-04T06:13:05;100095.06;;;6.66;91.40
59877;BME280;74472;51.140;17.184;2024-02-04T06:15:30;100099.53;;;6.64;91.28
59877;BME280;74472;51.140;17.184;2024-02-04T06:17:56;100092.81;;;6.60;91.37
59877;BME280;74472;51.140;17.184;2024-02-04T06:20:21;100081.56;;;6.57;91.34
59877;BME280;74472;51.140;17.184;2024-02-04T06:22:46;100086.06;;;6.55;91.45
59877;BME280;74472;51.140;17.184;2024-02-04T06:25:12;100091.50;;;6.52;91.26
59877;BME280;74472;51.140;17.184;2024-02-04T06:27:37;100078.63;;;6.48;91.50
59877;BME280;74472;51.140;17.184;2024-02-04T06:30:03;100091.75;;;6.48;91.55
59877;BME280;74472;51.140;17.184;2024-02-04T06:32:28;100102.06;;;6.51;91.79
59877;BME280;74472;51.140;17.184;2024-02-04T06:34:53;100090.72;;;6.50;91.68
59877;BME280;74472;51.140;17.184;2024-02-04T06:37:20;100089.78;;;6.51;91.54
59877;BME280;74472;51.140;17.184;2024-02-04T06:39:46;100086.50;;;6.48;91.67
59877;BME280;74472;51.140;17.184;2024-02-04T06:42:11;100090.91;;;6.47;91.48
59877;BME280;74472;51.140;17.184;2024-02-04T06:44:36;100098.88;;;6.46;91.56
59877;BME280;74472;51.140;17.184;2024-02-04T06:47:02;100106.75;;;6.46;91.61
59877;BME280;74472;51.140;17.184;2024-02-04T06:49:27;100092.88;;;6.44;91.63
59877;BME280;74472;51.140;17.184;2024-02-04T06:51:52;100099.78;;;6.45;91.84
59877;BME280;74472;51.140;17.184;2024-02-04T06:54:24;100099.72;;;6.46;91.62
59877;BME280;74472;51.140;17.184;2024-02-04T06:56:51;100102.41;;;6.45;91.59
59877;BME280;74472;51.140;17.184;2024-02-04T06:59:17;100092.88;;;6.44;91.79
59877;BME280;74472;51.140;17.184;2024-02-04T07:01:42;100093.63;;;6.46;91.48
59877;BME280;74472;51.140;17.184;2024-02-04T07:04:07;100094.53;;;6.45;91.44
59877;BME280;74472;51.140;17.184;2024-02-04T07:06:33;100083.03;;;6.47;91.62
59877;BME280;74472;51.140;17.184;2024-02-04T07:08:58;100094.38;;;6.48;91.38
59877;BME280;74472;51.140;17.184;2024-02-04T07:11:24;100092.41;;;6.51;91.17
59877;BME280;74472;51.140;17.184;2024-02-04T07:13:49;100083.81;;;6.49;91.10
59877;BME280;74472;51.140;17.184;2024-02-04T07:16:14;100090.53;;;6.53;90.99
59877;BME280;74472;51.140;17.184;2024-02-04T07:18:40;100075.94;;;6.49;91.00
59877;BME280;74472;51.140;17.184;2024-02-04T07:21:05;100075.00;;;6.50;90.86
59877;BME280;74472;51.140;17.184;2024-02-04T07:23:30;100070.53;;;6.52;90.80
59877;BME280;74472;51.140;17.184;2024-02-04T07:25:56;100069.69;;;6.52;90.61
59877;BME280;74472;51.140;17.184;2024-02-04T07:28:21;100072.00;;;6.56;90.76
59877;BME280;74472;51.140;17.184;2024-02-04T07:30:47;100071.34;;;6.53;90.43
59877;BME280;74472;51.140;17.184;2024-02-04T07:33:12;100072.13;;;6.55;90.47
59877;BME280;74472;51.140;17.184;2024-02-04T07:35:37;100070.34;;;6.55;90.33
59877;BME280;74472;51.140;17.184;2024-02-04T07:38:03;100067.72;;;6.55;90.36
59877;BME280;74472;51.140;17.184;2024-02-04T07:40:28;100075.47;;;6.57;90.39
59877;BME280;74472;51.140;17.184;2024-02-04T07:42:55;100071.06;;;6.57;90.37
59877;BME280;74472;51.140;17.184;2024-02-04T07:45:20;100065.00;;;6.57;90.23
59877;BME280;74472;51.140;17.184;2024-02-04T07:47:46;100060.59;;;6.57;90.08
59877;BME280;74472;51.140;17.184;2024-02-04T07:50:11;100073.63;;;6.59;90.05
59877;BME280;74472;51.140;17.184;2024-02-04T07:52:37;100074.34;;;6.61;90.16
59877;BME280;74472;51.140;17.184;2024-02-04T07:55:02;100072.41;;;6.65;90.06
59877;BME280;74472;51.140;17.184;2024-02-04T07:57:27;100066.22;;;6.66;90.07
59877;BME280;74472;51.140;17.184;2024-02-04T07:59:53;100064.25;;;6.69;89.93
59877;BME280;74472;51.140;17.184;2024-02-04T08:02:18;100066.69;;;6.72;89.83
59877;BME280;74472;51.140;17.184;2024-02-04T08:04:43;100077.06;;;6.74;89.67
59877;BME280;74472;51.140;17.184;2024-02-04T08:07:09;100090.19;;;6.74;89.57
59877;BME280;74472;51.140;17.184;2024-02-04T08:09:34;100081.28;;;6.76;89.34
59877;BME280;74472;51.140;17.184;2024-02-04T08:11:59;100075.75;;;6.81;89.49
59877;BME280;74472;51.140;17.184;2024-02-04T08:14:25;100069.31;;;6.87;89.37
59877;BME280;74472;51.140;17.184;2024-02-04T08:16:50;100068.16;;;6.91;89.07
59877;BME280;74472;51.140;17.184;2024-02-04T08:19:16;100078.59;;;6.92;88.99
59877;BME280;74472;51.140;17.184;2024-02-04T08:21:41;100078.28;;;6.97;88.86
59877;BME280;74472;51.140;17.184;2024-02-04T08:24:06;100067.53;;;7.01;88.87
59877;BME280;74472;51.140;17.184;2024-02-04T08:26:32;100057.59;;;7.07;88.22
59877;BME280;74472;51.140;17.184;2024-02-04T08:28:57;100059.28;;;7.08;88.21
59877;BME280;74472;51.140;17.184;2024-02-04T08:31:22;100073.06;;;7.11;87.79
59877;BME280;74472;51.140;17.184;2024-02-04T08:33:48;100061.50;;;7.14;87.61
59877;BME280;74472;51.140;17.184;2024-02-04T08:36:13;100068.28;;;7.18;87.54
59877;BME280;74472;51.140;17.184;2024-02-04T08:38:38;100057.59;;;7.21;86.89
59877;BME280;74472;51.140;17.184;2024-02-04T08:41:04;100055.59;;;7.24;87.12
59877;BME280;74472;51.140;17.184;2024-02-04T08:43:29;100051.00;;;7.28;86.92
59877;BME280;74472;51.140;17.184;2024-02-04T08:45:55;100058.50;;;7.34;86.82
59877;BME280;74472;51.140;17.184;2024-02-04T08:48:20;100060.81;;;7.39;86.37
59877;BME280;74472;51.140;17.184;2024-02-04T08:50:45;100063.13;;;7.43;85.47
59877;BME280;74472;51.140;17.184;2024-02-04T08:53:11;100054.88;;;7.49;85.68
59877;BME280;74472;51.140;17.184;2024-02-04T08:55:36;100052.25;;;7.49;85.39
59877;BME280;74472;51.140;17.184;2024-02-04T08:58:01;100060.69;;;7.55;84.91
59877;BME280;74472;51.140;17.184;2024-02-04T09:00:27;100068.38;;;7.58;84.29
59877;BME280;74472;51.140;17.184;2024-02-04T09:02:52;100067.53;;;7.57;84.23
59877;BME280;74472;51.140;17.184;2024-02-04T09:05:17;100064.78;;;7.59;84.18
59877;BME280;74472;51.140;17.184;2024-02-04T09:07:43;100028.78;;;7.61;83.88
59877;BME280;74472;51.140;17.184;2024-02-04T09:10:09;100022.47;;;7.63;84.10
59877;BME280;74472;51.140;17.184;2024-02-04T09:12:34;100036.25;;;7.67;84.08
59877;BME280;74472;51.140;17.184;2024-02-04T09:14:59;100019.56;;;7.68;83.69
59877;BME280;74472;51.140;17.184;2024-02-04T09:17:25;100014.81;;;7.73;83.82
59877;BME280;74472;51.140;17.184;2024-02-04T09:19:50;100017.25;;;7.76;83.32
59877;BME280;74472;51.140;17.184;2024-02-04T09:22:15;100025.13;;;7.76;83.66
59877;BME280;74472;51.140;17.184;2024-02-04T09:24:41;100017.06;;;7.79;83.15
59877;BME280;74472;51.140;17.184;2024-02-04T09:27:06;100020.50;;;7.80;83.07
59877;BME280;74472;51.140;17.184;2024-02-04T09:29:31;100016.78;;;7.84;83.04
59877;BME280;74472;51.140;17.184;2024-02-04T09:31:56;100027.06;;;7.87;83.00
59877;BME280;74472;51.140;17.184;2024-02-04T09:34:22;100011.00;;;7.91;83.16
59877;BME280;74472;51.140;17.184;2024-02-04T09:36:47;99999.34;;;7.95;82.73
59877;BME280;74472;51.140;17.184;2024-02-04T09:39:12;100016.47;;;8.01;82.68
59877;BME280;74472;51.140;17.184;2024-02-04T09:41:38;100007.44;;;8.05;82.65
59877;BME280;74472;51.140;17.184;2024-02-04T09:44:03;100012.41;;;8.10;82.72
59877;BME280;74472;51.140;17.184;2024-02-04T09:46:29;100003.38;;;8.14;82.79
59877;BME280;74472;51.140;17.184;2024-02-04T09:48:55;100016.09;;;8.20;82.49
59877;BME280;74472;51.140;17.184;2024-02-04T09:51:22;100012.50;;;8.21;82.69
59877;BME280;74472;51.140;17.184;2024-02-04T09:53:51;100014.94;;;8.24;82.49
59877;BME280;74472;51.140;17.184;2024-02-04T09:56:18;100010.50;;;8.25;82.05
59877;BME280;74472;51.140;17.184;2024-02-04T09:58:44;100016.59;;;8.25;82.18
59877;BME280;74472;51.140;17.184;2024-02-04T10:01:10;99999.16;;;8.24;81.58
59877;BME280;74472;51.140;17.184;2024-02-04T10:03:36;99992.13;;;8.25;81.92
59877;BME280;74472;51.140;17.184;2024-02-04T10:06:02;99983.19;;;8.27;81.88
59877;BME280;74472;51.140;17.184;2024-02-04T10:08:27;99979.59;;;8.28;82.16
59877;BME280;74472;51.140;17.184;2024-02-04T10:10:52;99967.19;;;8.30;82.13
59877;BME280;74472;51.140;17.184;2024-02-04T10:13:19;99978.56;;;8.31;81.74
59877;BME280;74472;51.140;17.184;2024-02-04T10:15:46;99969.63;;;8.33;81.90
59877;BME280;74472;51.140;17.184;2024-02-04T10:18:11;99970.47;;;8.34;81.85
59877;BME280;74472;51.140;17.184;2024-02-04T10:20:37;99961.53;;;8.36;81.94
59877;BME280;74472;51.140;17.184;2024-02-04T10:23:03;99969.13;;;8.41;81.97
59877;BME280;74472;51.140;17.184;2024-02-04T10:25:28;99964.69;;;8.41;81.79
59877;BME280;74472;51.140;17.184;2024-02-04T10:27:54;99963.03;;;8.40;82.00
59877;BME280;74472;51.140;17.184;2024-02-04T10:30:20;99955.88;;;8.42;81.85
59877;BME280;74472;51.140;17.184;2024-02-04T10:32:49;99967.03;;;8.46;81.99
59877;BME280;74472;51.140;17.184;2024-02-04T10:35:15;99962.69;;;8.45;81.68
59877;BME280;74472;51.140;17.184;2024-02-04T10:37:44;99945.88;;;8.48;82.44
59877;BME280;74472;51.140;17.184;2024-02-04T10:40:09;99943.66;;;8.54;82.41
59877;BME280;74472;51.140;17.184;2024-02-04T10:42:36;99936.59;;;8.55;82.22
59877;BME280;74472;51.140;17.184;2024-02-04T10:45:07;99942.38;;;8.60;82.44
59877;BME280;74472;51.140;17.184;2024-02-04T10:47:37;99928.28;;;8.61;82.29
59877;BME280;74472;51.140;17.184;2024-02-04T10:50:03;99929.94;;;8.62;82.70
59877;BME280;74472;51.140;17.184;2024-02-04T10:52:34;99933.22;;;8.65;82.98
59877;BME280;74472;51.140;17.184;2024-02-04T10:55:01;99918.78;;;8.71;82.73
59877;BME280;74472;51.140;17.184;2024-02-04T10:57:27;99928.13;;;8.75;82.72
59877;BME280;74472;51.140;17.184;2024-02-04T10:59:53;99907.09;;;8.75;82.79
59877;BME280;74472;51.140;17.184;2024-02-04T11:02:19;99906.56;;;8.83;82.99
59877;BME280;74472;51.140;17.184;2024-02-04T11:04:46;99907.78;;;8.90;83.00
59877;BME280;74472;51.140;17.184;2024-02-04T11:07:13;99915.56;;;8.91;83.50
59877;BME280;74472;51.140;17.184;2024-02-04T11:09:39;99887.34;;;8.93;83.17
59877;BME280;74472;51.140;17.184;2024-02-04T11:12:10;99883.88;;;8.93;83.54
59877;BME280;74472;51.140;17.184;2024-02-04T11:14:39;99891.34;;;8.99;83.56
59877;BME280;74472;51.140;17.184;2024-02-04T11:27:34;99843.38;;;9.07;84.59
59877;BME280;74472;51.140;17.184;2024-02-04T11:29:59;99829.16;;;9.09;84.98
59877;BME280;74472;51.140;17.184;2024-02-04T11:32:24;99836.63;;;9.15;84.85
59877;BME280;74472;51.140;17.184;2024-02-04T11:34:51;99829.31;;;9.19;84.92
59877;BME280;74472;51.140;17.184;2024-02-04T11:37:18;99837.00;;;9.22;84.80
59877;BME280;74472;51.140;17.184;2024-02-04T11:39:48;99847.06;;;9.28;85.10
59877;BME280;74472;51.140;17.184;2024-02-04T11:42:14;99848.00;;;9.27;85.03
59877;BME280;74472;51.140;17.184;2024-02-04T11:44:41;99853.88;;;9.31;84.73
59877;BME280;74472;51.140;17.184;2024-02-04T11:47:06;99844.31;;;9.30;85.16
59877;BME280;74472;51.140;17.184;2024-02-04T11:49:31;99853.03;;;9.30;85.17
59877;BME280;74472;51.140;17.184;2024-02-04T11:51:57;99845.16;;;9.30;85.17
59877;BME280;74472;51.140;17.184;2024-02-04T11:54:22;99843.25;;;9.32;85.51
59877;BME280;74472;51.140;17.184;2024-02-04T11:56:51;99832.59;;;9.34;85.47
59877;BME280;74472;51.140;17.184;2024-02-04T11:59:23;99821.22;;;9.33;85.62
59877;BME280;74472;51.140;17.184;2024-02-04T12:01:49;99804.97;;;9.39;85.84
59877;BME280;74472;51.140;17.184;2024-02-04T12:04:17;99812.50;;;9.44;86.14
59877;BME280;74472;51.140;17.184;2024-02-04T12:06:43;99810.59;;;9.46;85.95
59877;BME280;74472;51.140;17.184;2024-02-04T12:09:09;99811.34;;;9.48;85.98
59877;BME280;74472;51.140;17.184;2024-02-04T12:11:38;99805.09;;;9.49;86.11
59877;BME280;74472;51.140;17.184;2024-02-04T12:14:04;99802.34;;;9.51;86.31
59877;BME280;74472;51.140;17.184;2024-02-04T12:16:32;99808.25;;;9.54;86.32
59877;BME280;74472;51.140;17.184;2024-02-04T12:18:58;99787.03;;;9.56;86.09
59877;BME280;74472;51.140;17.184;2024-02-04T12:21:25;99788.00;;;9.55;86.15
59877;BME280;74472;51.140;17.184;2024-02-04T12:23:51;99771.22;;;9.56;85.96
59877;BME280;74472;51.140;17.184;2024-02-04T12:26:17;99758.56;;;9.61;86.06
59877;BME280;74472;51.140;17.184;2024-02-04T12:28:42;99757.59;;;9.62;85.83
59877;BME280;74472;51.140;17.184;2024-02-04T12:31:16;99768.59;;;9.67;86.21
59877;BME280;74472;51.140;17.184;2024-02-04T12:33:41;99769.31;;;9.69;85.75
59877;BME280;74472;51.140;17.184;2024-02-04T12:36:07;99752.69;;;9.69;85.74
59877;BME280;74472;51.140;17.184;2024-02-04T12:38:33;99743.72;;;9.71;85.58
59877;BME280;74472;51.140;17.184;2024-02-04T12:41:02;99736.03;;;9.68;85.58
59877;BME280;74472;51.140;17.184;2024-02-04T12:43:28;99723.31;;;9.73;85.55
59877;BME280;74472;51.140;17.184;2024-02-04T12:45:56;99725.84;;;9.75;85.46
59877;BME280;74472;51.140;17.184;2024-02-04T12:48:21;99726.44;;;9.78;85.38
59877;BME280;74472;51.140;17.184;2024-02-04T12:50:48;99721.03;;;9.80;85.64
59877;BME280;74472;51.140;17.184;2024-02-04T12:53:13;99717.34;;;9.82;85.25
59877;BME280;74472;51.140;17.184;2024-02-04T12:55:40;99697.22;;;9.81;85.27
59877;BME280;74472;51.140;17.184;2024-02-04T12:58:09;99684.50;;;9.86;85.54